createdAt,value
2023-01-04T00:00:27.277Z,6.80
2023-01-04T00:03:16.399Z,6.71
2023-01-04T00:05:45.250Z,6.65
2023-01-04T00:08:14.030Z,6.65
2023-01-04T00:10:42.797Z,6.63
2023-01-04T00:13:11.835Z,6.69
2023-01-04T00:15:41.106Z,6.72
2023-01-04T00:18:09.907Z,6.73
2023-01-04T00:20:38.771Z,6.73
2023-01-04T00:23:07.739Z,6.74
2023-01-04T00:25:42.005Z,6.77
2023-01-04T00:28:10.781Z,6.79
2023-01-04T00:30:39.573Z,6.83
2023-01-04T00:33:08.257Z,6.87
2023-01-04T00:35:45.881Z,6.90
2023-01-04T00:38:15.476Z,6.93
2023-01-04T00:40:44.281Z,6.94
2023-01-04T00:43:14.086Z,6.94
2023-01-04T00:45:44.282Z,6.93
2023-01-04T00:48:13.200Z,6.94
2023-01-04T00:50:47.871Z,6.95
2023-01-04T00:53:17.626Z,6.95
2023-01-04T00:55:46.989Z,6.97
2023-01-04T00:58:15.853Z,6.99
2023-01-04T01:00:44.660Z,7.05
2023-01-04T01:03:13.632Z,7.11
2023-01-04T01:05:45.790Z,7.13
2023-01-04T01:08:27.232Z,7.11
2023-01-04T01:10:56.534Z,7.08
2023-01-04T01:13:25.501Z,7.06
2023-01-04T01:15:54.783Z,7.04
2023-01-04T01:18:23.599Z,7.03
2023-01-04T01:20:52.246Z,7.01
2023-01-04T01:23:20.952Z,7.00
2023-01-04T01:25:49.751Z,7.00
2023-01-04T01:28:18.427Z,7.01
2023-01-04T01:30:47.388Z,7.04
2023-01-04T01:33:16.369Z,7.06
2023-01-04T01:35:45.243Z,7.05
2023-01-04T01:38:14.002Z,7.05
2023-01-04T01:40:44.585Z,7.07
2023-01-04T01:43:23.245Z,7.11
2023-01-04T01:45:55.939Z,7.14
2023-01-04T01:48:28.688Z,7.16
2023-01-04T01:51:04.479Z,7.16
2023-01-04T01:53:36.479Z,7.14
2023-01-04T01:56:07.587Z,7.15
2023-01-04T01:58:45.843Z,7.15
2023-01-04T02:01:15.630Z,7.14
2023-01-04T02:03:47.923Z,7.13
2023-01-04T02:06:26.922Z,7.10
2023-01-04T02:08:56.955Z,7.09
2023-01-04T02:11:27.009Z,7.08
2023-01-04T02:14:15.084Z,7.06
2023-01-04T02:17:07.760Z,7.03
2023-01-04T02:19:54.953Z,7.00
2023-01-04T02:23:01.093Z,7.00
2023-01-04T02:25:51.440Z,7.00
2023-01-04T02:28:35.378Z,6.98
2023-01-04T02:31:43.800Z,6.94
2023-01-04T02:34:28.586Z,6.90
2023-01-04T02:37:40.030Z,6.87
2023-01-04T02:40:20.071Z,6.84
2023-01-04T02:43:24.719Z,6.82
2023-01-04T02:46:00.310Z,6.80
2023-01-04T02:48:58.667Z,6.79
2023-01-04T02:51:32.559Z,6.78
2023-01-04T02:54:18.445Z,6.78
2023-01-04T02:57:18.238Z,6.77
2023-01-04T03:00:24.982Z,6.76
2023-01-04T03:03:36.768Z,6.74
2023-01-04T03:06:22.915Z,6.74
2023-01-04T03:09:12.603Z,6.75
2023-01-04T03:12:18.896Z,6.73
2023-01-04T03:14:52.581Z,6.70
2023-01-04T03:17:24.515Z,6.65
2023-01-04T03:19:56.192Z,6.65
2023-01-04T03:22:49.219Z,6.64
2023-01-04T03:25:41.631Z,6.62
2023-01-04T03:28:32.502Z,6.60
2023-01-04T03:31:46.306Z,6.59
2023-01-04T03:34:33.927Z,6.58
2023-01-04T03:37:14.535Z,6.59
2023-01-04T03:40:24.943Z,6.58
2023-01-04T03:43:20.164Z,6.57
2023-01-04T03:46:21.065Z,6.54
2023-01-04T03:49:44.877Z,6.51
2023-01-04T03:52:14.974Z,6.51
2023-01-04T03:54:47.942Z,6.51
2023-01-04T03:57:17.256Z,6.51
2023-01-04T03:59:54.143Z,6.49
2023-01-04T04:02:30.707Z,6.44
2023-01-04T04:05:18.418Z,6.42
2023-01-04T04:08:05.829Z,6.41
2023-01-04T04:10:34.777Z,6.41
2023-01-04T04:13:03.595Z,6.40
2023-01-04T04:15:32.537Z,6.37
2023-01-04T04:18:01.595Z,6.36
2023-01-04T04:20:30.502Z,6.35
2023-01-04T04:22:59.632Z,6.36
2023-01-04T04:25:28.675Z,6.36
2023-01-04T04:27:57.701Z,6.37
2023-01-04T04:30:26.631Z,6.38
2023-01-04T04:32:56.705Z,6.37
2023-01-04T04:35:25.714Z,6.36
2023-01-04T04:37:54.600Z,6.34
2023-01-04T04:40:42.079Z,6.35
2023-01-04T04:43:11.055Z,6.36
2023-01-04T04:45:39.971Z,6.36
2023-01-04T04:48:08.919Z,6.34
2023-01-04T04:50:38.165Z,6.33
2023-01-04T04:53:07.122Z,6.30
2023-01-04T04:55:36.471Z,6.29
2023-01-04T04:58:05.729Z,6.28
2023-01-04T05:00:34.953Z,6.27
2023-01-04T05:03:04.371Z,6.26
2023-01-04T05:05:33.681Z,6.23
2023-01-04T05:08:02.549Z,6.20
2023-01-04T05:24:31.711Z,6.50
2023-01-04T05:26:59.911Z,6.46
2023-01-04T05:29:46.671Z,6.40
2023-01-04T05:32:47.642Z,6.37
2023-01-04T05:35:17.212Z,6.29
2023-01-04T05:37:47.375Z,6.23
2023-01-04T05:40:17.151Z,6.20
2023-01-04T05:42:48.784Z,6.16
2023-01-04T05:45:18.421Z,6.11
2023-01-04T05:47:53.972Z,6.10
2023-01-04T05:50:24.753Z,6.06
2023-01-04T05:52:54.118Z,6.05
2023-01-04T05:55:23.382Z,6.04
2023-01-04T05:57:52.506Z,6.00
2023-01-04T06:00:22.236Z,6.03
2023-01-04T06:02:53.089Z,6.00
2023-01-04T06:05:25.299Z,5.97
2023-01-04T06:07:54.528Z,5.96
2023-01-04T06:10:23.874Z,5.96
2023-01-04T06:12:53.524Z,5.93
2023-01-04T06:15:23.054Z,5.91
2023-01-04T06:17:52.575Z,5.86
2023-01-04T06:20:21.645Z,5.84
2023-01-04T06:22:51.180Z,5.82
2023-01-04T06:25:20.882Z,5.83
2023-01-04T06:27:50.036Z,5.84
2023-01-04T06:30:19.308Z,5.84
2023-01-04T06:32:48.649Z,5.83
2023-01-04T06:35:17.782Z,5.83
2023-01-04T06:37:47.811Z,5.84
2023-01-04T06:40:19.257Z,5.85
2023-01-04T06:42:48.354Z,5.83
2023-01-04T06:45:17.540Z,5.83
2023-01-04T06:47:49.630Z,5.87
2023-01-04T06:50:23.041Z,5.89
2023-01-04T07:10:42.715Z,5.57
2023-01-04T07:13:14.041Z,5.51
2023-01-04T07:15:48.270Z,5.48
2023-01-04T07:18:17.685Z,5.44
2023-01-04T07:20:48.320Z,5.43
2023-01-04T07:23:17.906Z,5.41
2023-01-04T07:25:47.209Z,5.40
2023-01-04T07:28:37.183Z,5.40
2023-01-04T07:31:09.429Z,5.39
2023-01-04T07:33:39.071Z,5.40
2023-01-04T07:36:11.012Z,5.42
2023-01-04T07:42:31.087Z,5.49
2023-01-04T07:45:32.650Z,5.46
2023-01-04T07:48:15.580Z,5.42
2023-01-04T07:50:53.043Z,5.36
2023-01-04T08:33:34.949Z,5.27
2023-01-04T08:36:32.167Z,5.25
2023-01-04T08:39:24.152Z,5.25
2023-01-04T08:42:01.096Z,5.21
2023-01-04T08:50:39.923Z,5.25
2023-01-04T08:53:09.925Z,5.26
2023-01-04T08:55:53.452Z,5.26
2023-01-04T08:58:24.449Z,5.27
2023-01-04T09:00:54.519Z,5.30
2023-01-04T09:03:24.032Z,5.31
2023-01-04T09:06:12.911Z,5.30
2023-01-04T09:08:45.845Z,5.29
2023-01-04T09:12:00.325Z,5.23
2023-01-04T09:21:23.171Z,5.35
2023-01-04T09:24:10.060Z,5.40
2023-01-04T09:26:41.150Z,5.47
2023-01-04T09:54:36.690Z,6.01
2023-01-04T09:57:23.820Z,5.77
2023-01-04T10:00:09.854Z,5.93
2023-01-04T11:57:31.124Z,6.10
2023-01-04T12:00:18.326Z,6.06
2023-01-04T12:03:02.611Z,6.03
2023-01-04T12:06:02.505Z,6.05
2023-01-04T12:08:35.753Z,6.09
2023-01-04T12:11:33.026Z,6.09
2023-01-04T12:14:50.581Z,6.08
2023-01-04T12:17:58.593Z,6.06
2023-01-04T12:20:32.330Z,6.06
2023-01-04T12:23:01.221Z,6.09
2023-01-04T12:25:45.560Z,6.13
2023-01-04T12:28:35.576Z,6.13
2023-01-04T12:31:22.044Z,6.13
2023-01-04T12:34:00.487Z,6.13
2023-01-04T12:37:06.215Z,6.14
2023-01-04T12:40:43.410Z,6.15
2023-01-04T12:53:38.774Z,6.05
2023-01-04T12:56:01.038Z,6.01
2023-01-04T12:58:51.146Z,5.99
2023-01-04T13:01:29.257Z,5.98
2023-01-04T13:04:41.270Z,5.95
2023-01-04T13:07:21.023Z,5.96
2023-01-04T13:10:07.379Z,5.97
2023-01-04T13:13:22.384Z,5.98
2023-01-04T13:16:53.459Z,5.97
2023-01-04T13:20:21.061Z,5.95
2023-01-04T13:22:57.943Z,5.93
2023-01-04T13:39:45.369Z,5.65
2023-01-04T13:42:25.168Z,5.72
2023-01-04T13:45:20.547Z,5.69
2023-01-04T13:48:01.611Z,5.67
2023-01-04T13:50:47.540Z,5.66
2023-01-04T13:54:22.112Z,5.65
2023-01-04T13:56:55.143Z,5.63
2023-01-04T13:59:29.443Z,5.62
2023-01-04T14:02:37.821Z,5.59
2023-01-04T14:05:18.724Z,5.55
2023-01-04T14:07:47.040Z,5.51
2023-01-04T14:10:19.803Z,5.45
2023-01-04T14:12:47.637Z,5.42
2023-01-04T14:15:25.320Z,5.37
2023-01-04T14:17:56.665Z,5.31
2023-01-04T14:20:25.449Z,5.28
2023-01-04T14:22:56.086Z,5.26
2023-01-04T14:25:36.943Z,5.25
2023-01-04T14:28:27.689Z,5.25
2023-01-04T14:31:06.547Z,5.20
2023-01-04T14:33:45.463Z,5.14
2023-01-04T14:36:27.539Z,5.06
2023-01-04T14:39:23.315Z,4.98
2023-01-04T14:41:57.767Z,4.90
2023-01-04T14:44:31.890Z,4.85
2023-01-04T14:47:07.495Z,4.78
2023-01-04T14:49:35.865Z,4.62
2023-01-04T14:52:20.389Z,4.48
2023-01-04T14:54:48.780Z,4.35
2023-01-04T14:57:17.221Z,4.24
2023-01-04T14:59:46.162Z,4.12
2023-01-04T15:02:16.157Z,4.01
2023-01-04T15:04:46.837Z,3.89
2023-01-04T15:07:41.203Z,3.80
2023-01-04T15:10:28.148Z,3.68
2023-01-04T15:28:28.823Z,3.70
2023-01-04T15:31:09.869Z,3.63
2023-01-04T15:33:54.317Z,3.49
2023-01-04T15:36:32.544Z,3.39
2023-01-04T15:39:01.030Z,3.27
2023-01-04T15:41:50.478Z,3.14
2023-01-04T15:44:20.410Z,3.02
2023-01-04T15:46:54.211Z,2.93
2023-01-04T15:49:35.138Z,2.84
2023-01-04T15:52:28.324Z,2.72
2023-01-04T15:55:14.052Z,2.64
2023-01-04T15:57:44.356Z,2.57
2023-01-04T16:00:14.757Z,2.51
2023-01-04T16:02:43.071Z,2.45
2023-01-04T16:18:56.444Z,2.48
2023-01-04T16:21:28.691Z,2.33
2023-01-04T16:24:05.488Z,2.25
2023-01-04T16:26:38.961Z,2.17
2023-01-04T16:29:09.326Z,2.12
2023-01-04T16:31:39.292Z,2.07
2023-01-04T16:34:10.453Z,2.02
2023-01-04T16:36:39.601Z,1.98
2023-01-04T16:39:08.907Z,1.93
2023-01-04T16:41:37.920Z,1.87
2023-01-04T16:44:07.226Z,1.80
2023-01-04T16:46:40.990Z,1.69
2023-01-04T16:49:16.998Z,1.61
2023-01-04T16:51:47.925Z,1.52
2023-01-04T16:54:19.394Z,1.44
2023-01-04T16:56:49.762Z,1.39
2023-01-04T16:59:22.260Z,1.40
2023-01-04T17:01:57.989Z,1.39
2023-01-04T17:04:28.479Z,1.36
2023-01-04T17:06:59.603Z,1.33
2023-01-04T17:09:29.216Z,1.29
2023-01-04T17:15:14.904Z,1.21
2023-01-04T17:17:41.007Z,1.17
2023-01-04T17:20:10.760Z,1.14
2023-01-04T17:22:40.767Z,1.14
2023-01-04T17:25:09.998Z,1.13
2023-01-04T17:27:39.656Z,1.12
2023-01-04T17:30:10.600Z,1.10
2023-01-04T17:32:40.133Z,1.05
2023-01-04T17:35:10.131Z,1.03
2023-01-04T17:37:40.060Z,0.98
2023-01-04T17:40:10.588Z,0.93
2023-01-04T17:42:44.009Z,0.85
2023-01-04T17:45:16.162Z,0.80
2023-01-04T17:47:45.439Z,0.79
2023-01-04T17:50:16.206Z,0.77
2023-01-04T17:52:48.842Z,0.77
2023-01-04T17:55:21.445Z,0.75
2023-01-04T17:57:50.860Z,0.75
2023-01-04T18:00:20.485Z,0.75
2023-01-04T18:02:49.940Z,0.79
2023-01-04T18:05:19.815Z,0.82
2023-01-04T18:07:49.123Z,0.83
2023-01-04T18:10:27.165Z,0.81
2023-01-04T18:13:08.707Z,0.81
2023-01-04T18:15:48.721Z,0.81
2023-01-04T18:18:19.356Z,0.81
2023-01-04T18:20:52.596Z,0.82
2023-01-04T18:23:25.773Z,0.82
2023-01-04T18:26:03.535Z,0.82
2023-01-04T18:28:34.723Z,0.81
2023-01-04T18:31:19.061Z,0.78
2023-01-04T18:33:55.344Z,0.76
2023-01-04T18:36:29.912Z,0.73
2023-01-04T18:39:01.270Z,0.70
2023-01-04T18:41:31.219Z,0.68
2023-01-04T18:44:31.416Z,0.68
2023-01-04T18:46:53.729Z,0.67
2023-01-04T18:49:23.641Z,0.66
2023-01-04T18:51:54.380Z,0.64
2023-01-04T18:54:23.802Z,0.61
2023-01-04T18:57:00.307Z,0.58
2023-01-04T18:59:30.529Z,0.52
2023-01-04T19:02:04.402Z,0.46
2023-01-04T19:04:35.309Z,0.40
2023-01-04T19:07:04.532Z,0.39
2023-01-04T19:09:33.625Z,0.37
2023-01-04T19:12:02.873Z,0.34
2023-01-04T19:14:31.910Z,0.30
2023-01-04T19:17:01.290Z,0.28
2023-01-04T19:19:30.765Z,0.28
2023-01-04T19:21:59.887Z,0.29
2023-01-04T19:24:29.188Z,0.32
2023-01-04T19:27:04.070Z,0.34
2023-01-04T19:32:33.230Z,0.37
2023-01-04T19:35:04.958Z,0.34
2023-01-04T19:37:34.189Z,0.31
2023-01-04T19:40:05.577Z,0.27
2023-01-04T19:42:36.849Z,0.23
2023-01-04T19:45:07.394Z,0.21
2023-01-04T19:47:36.837Z,0.16
2023-01-04T19:50:07.412Z,0.22
2023-01-04T19:52:38.933Z,0.23
2023-01-04T19:55:08.993Z,0.24
2023-01-04T19:57:39.787Z,0.24
2023-01-04T20:00:10.564Z,0.27
2023-01-04T20:02:40.280Z,0.30
2023-01-04T20:05:10.144Z,0.34
2023-01-04T20:07:40.770Z,0.36
2023-01-04T20:10:14.590Z,0.37
2023-01-04T20:12:44.885Z,0.36
2023-01-04T20:15:14.680Z,0.34
2023-01-04T20:17:44.170Z,0.33
2023-01-04T20:20:13.851Z,0.34
2023-01-04T20:22:43.777Z,0.33
2023-01-04T20:25:13.293Z,0.37
2023-01-04T20:27:43.075Z,0.41
2023-01-04T20:30:13.680Z,0.44
2023-01-04T20:46:48.119Z,0.93
2023-01-04T20:49:16.427Z,1.18
2023-01-04T20:51:44.540Z,1.21
2023-01-04T20:54:12.911Z,1.20
2023-01-04T20:56:40.891Z,1.16
2023-01-04T20:59:08.640Z,1.07
2023-01-04T21:01:36.687Z,0.99
2023-01-04T21:04:05.005Z,0.91
2023-01-04T21:06:34.700Z,0.85
2023-01-04T21:09:02.481Z,0.82
2023-01-04T21:11:30.710Z,0.83
2023-01-04T21:13:58.871Z,0.91
2023-01-04T21:16:26.870Z,1.02
2023-01-04T21:18:54.741Z,1.14
2023-01-04T21:21:22.688Z,1.19
2023-01-04T21:23:57.560Z,1.19
2023-01-04T21:26:26.132Z,1.17
2023-01-04T21:28:54.361Z,1.17
2023-01-04T21:31:25.093Z,1.17
2023-01-04T21:33:53.840Z,1.14
2023-01-04T21:36:25.179Z,1.15
2023-01-04T21:38:55.010Z,1.17
2023-01-04T21:41:24.180Z,1.14
2023-01-04T21:43:54.161Z,1.15
2023-01-04T22:00:08.672Z,1.55
2023-01-04T22:02:43.036Z,1.61
2023-01-04T22:05:10.946Z,1.57
2023-01-04T22:07:38.541Z,1.53
2023-01-04T22:10:07.696Z,1.47
2023-01-04T22:12:36.649Z,1.42
2023-01-04T22:15:04.824Z,1.34
2023-01-04T22:17:32.934Z,1.30
2023-01-04T22:20:00.914Z,1.26
2023-01-04T22:22:30.431Z,1.20
2023-01-04T22:24:58.400Z,1.17
2023-01-04T22:30:42.224Z,1.21
2023-01-04T22:33:11.229Z,1.22
2023-01-04T22:35:40.919Z,1.23
2023-01-04T22:38:10.047Z,1.06
2023-01-04T22:40:40.551Z,1.19
2023-01-04T22:43:09.693Z,1.19
2023-01-04T22:45:41.032Z,1.19
2023-01-04T22:48:09.826Z,1.21
2023-01-04T22:50:41.321Z,1.24
2023-01-04T22:53:09.902Z,1.28
2023-01-04T22:56:17.027Z,1.32
2023-01-04T22:58:30.539Z,1.38
2023-01-04T23:01:00.152Z,1.37
2023-01-04T23:03:29.213Z,1.43
2023-01-04T23:05:58.774Z,1.49
2023-01-04T23:08:28.031Z,1.64
2023-01-04T23:10:57.225Z,1.79
2023-01-04T23:13:28.218Z,1.95
2023-01-04T23:15:57.289Z,2.07
2023-01-04T23:18:26.791Z,2.15
2023-01-04T23:20:55.875Z,2.21
2023-01-04T23:23:24.715Z,2.23
2023-01-04T23:26:01.993Z,2.25
2023-01-04T23:28:31.025Z,2.25
2023-01-04T23:31:09.308Z,2.28
2023-01-04T23:33:38.251Z,2.30
2023-01-04T23:36:10.933Z,2.31
2023-01-04T23:38:40.802Z,2.32
2023-01-04T23:41:11.227Z,2.33
2023-01-04T23:43:40.455Z,2.33
2023-01-04T23:46:15.226Z,2.32
2023-01-04T23:48:44.650Z,2.31
2023-01-04T23:51:13.723Z,2.30
2023-01-04T23:53:42.642Z,2.29
2023-01-04T23:56:16.447Z,2.34
2023-01-04T23:58:45.461Z,2.46
